Time;durP1;ratioP1;P1;durP2;ratioP2;P2;SDS_P1;SDS_P2;PMS_P1;PMS_P2;Temp;Humidity;BMP_temperature;BMP_pressure;BME280_temperature;BME280_humidity;BME280_pressure;Samples;Min_cycle;Max_cycle;Signal;HPM_P1;HPM_P2
2023/04/29 00:00:12;;;;;;;4.97;4.28;;;;;;;;;;5042559;28;20029;-78
2023/04/29 00:02:38;;;;;;;6.38;4.45;;;;;;;;;;5030289;28;20033;-78
2023/04/29 00:05:05;;;;;;;7.53;5.05;;;;;;;;;;5043350;28;20125;-77
2023/04/29 00:07:35;;;;;;;6.00;4.53;;;;;;;;;;5052572;28;20470;-77
2023/04/29 00:10:01;;;;;;;6.75;5.10;;;;;;;;;;5028738;28;20029;-78
2023/04/29 00:12:29;;;;;;;8.20;5.15;;;;;;;;;;5031194;28;20025;-78
2023/04/29 00:14:55;;;;;;;5.85;4.85;;;;;;;;;;5034965;28;20471;-80
2023/04/29 00:17:21;;;;;;;6.43;4.40;;;;;;;;;;5024022;28;20033;-77
2023/04/29 00:19:49;;;;;;;7.35;4.55;;;;;;;;;;5030232;28;20025;-78
2023/04/29 00:22:16;;;;;;;6.13;4.95;;;;;;;;;;5027828;28;20052;-78
2023/04/29 00:24:42;;;;;;;6.38;5.00;;;;;;;;;;5048281;28;20057;-79
2023/04/29 00:27:10;;;;;;;6.75;5.32;;;;;;;;;;5032707;28;20060;-77
2023/04/29 00:29:37;;;;;;;6.88;5.72;;;;;;;;;;5032250;28;20108;-78
2023/04/29 00:32:03;;;;;;;6.38;4.70;;;;;;;;;;5044906;28;20056;-77
2023/04/29 00:34:30;;;;;;;6.28;5.03;;;;;;;;;;5034109;28;20431;-78
2023/04/29 00:36:56;;;;;;;6.07;5.20;;;;;;;;;;5047195;28;20118;-78
2023/04/29 00:39:22;;;;;;;9.25;5.20;;;;;;;;;;5051775;28;20128;-77
2023/04/29 00:41:48;;;;;;;6.85;5.18;;;;;;;;;;5031413;28;20120;-78
2023/04/29 00:44:14;;;;;;;5.97;4.65;;;;;;;;;;5031187;28;20041;-78
2023/04/29 00:46:40;;;;;;;7.43;5.07;;;;;;;;;;5032133;28;20014;-77
2023/04/29 00:49:07;;;;;;;5.50;4.60;;;;;;;;;;5032971;28;20098;-77
2023/04/29 00:51:35;;;;;;;7.63;4.70;;;;;;;;;;5046819;28;20030;-77
2023/04/29 00:54:01;;;;;;;7.50;4.90;;;;;;;;;;5046612;28;20102;-77
2023/04/29 00:56:29;;;;;;;5.85;5.10;;;;;;;;;;5030595;28;20526;-78
2023/04/29 00:58:56;;;;;;;8.00;4.90;;;;;;;;;;5047137;28;20115;-77
2023/04/29 01:01:23;;;;;;;6.82;4.90;;;;;;;;;;5036999;28;20037;-78
2023/04/29 01:03:50;;;;;;;6.45;4.70;;;;;;;;;;5032024;28;20030;-78
2023/04/29 01:06:31;;;;;;;6.65;4.63;;;;;;;;;;5058151;28;20496;-77
2023/04/29 01:09:16;;;;;;;6.13;4.93;;;;;;;;;;5049141;28;20366;-78
2023/04/29 01:11:53;;;;;;;7.10;4.55;;;;;;;;;;5022929;28;20521;-77
2023/04/29 01:14:20;;;;;;;8.80;5.68;;;;;;;;;;5027837;28;20030;-78
2023/04/29 01:16:52;;;;;;;6.93;5.18;;;;;;;;;;5027836;28;20112;-77
2023/04/29 01:19:36;;;;;;;6.40;5.00;;;;;;;;;;5031340;28;20029;-77
2023/04/29 01:22:02;;;;;;;7.95;5.85;;;;;;;;;;5045951;28;20033;-77
2023/04/29 01:24:28;;;;;;;6.78;5.10;;;;;;;;;;5032637;28;20029;-77
2023/04/29 01:27:02;;;;;;;5.38;4.70;;;;;;;;;;5044037;28;20021;-78
2023/04/29 01:29:37;;;;;;;5.90;4.85;;;;;;;;;;5029279;28;20419;-77
2023/04/29 01:32:11;;;;;;;7.03;5.25;;;;;;;;;;5042749;28;20052;-77
2023/04/29 01:35:10;;;;;;;6.45;4.85;;;;;;;;;;5048077;28;20115;-77
2023/04/29 01:37:54;;;;;;;6.40;5.60;;;;;;;;;;5008741;28;20702;-78
2023/04/29 01:40:33;;;;;;;6.63;5.00;;;;;;;;;;5027618;28;20056;-78
2023/04/29 01:43:06;;;;;;;6.05;4.80;;;;;;;;;;5046803;28;20056;-77
2023/04/29 01:45:34;;;;;;;14.48;5.30;;;;;;;;;;5030344;28;20067;-77
2023/04/29 01:48:01;;;;;;;7.70;5.50;;;;;;;;;;5042790;28;20041;-78
2023/04/29 01:50:27;;;;;;;5.03;4.53;;;;;;;;;;5044749;28;20025;-78
2023/04/29 01:52:53;;;;;;;5.10;4.60;;;;;;;;;;5041013;28;20071;-77
2023/04/29 01:55:20;;;;;;;7.15;5.00;;;;;;;;;;5030856;28;20664;-77
2023/04/29 01:57:46;;;;;;;6.80;4.95;;;;;;;;;;5028727;28;20029;-78
2023/04/29 02:00:12;;;;;;;6.60;5.03;;;;;;;;;;5044371;28;20529;-77
2023/04/29 02:02:39;;;;;;;6.28;5.53;;;;;;;;;;5041814;28;20030;-77
2023/04/29 02:05:06;;;;;;;5.60;4.53;;;;;;;;;;5030127;28;20555;-77
2023/04/29 02:07:32;;;;;;;5.63;4.97;;;;;;;;;;5028115;28;20029;-78
2023/04/29 02:09:58;;;;;;;7.15;5.07;;;;;;;;;;5050419;28;20486;-77
2023/04/29 02:12:24;;;;;;;6.82;4.93;;;;;;;;;;5042542;28;20612;-78
2023/04/29 02:14:53;;;;;;;5.43;4.53;;;;;;;;;;5046724;28;20116;-77
2023/04/29 02:17:20;;;;;;;6.45;4.47;;;;;;;;;;5026131;28;20040;-77
2023/04/29 02:19:46;;;;;;;6.90;4.50;;;;;;;;;;5030099;28;20036;-77
2023/04/29 02:22:12;;;;;;;6.63;5.20;;;;;;;;;;5029112;28;20060;-77
2023/04/29 02:24:38;;;;;;;6.95;5.22;;;;;;;;;;5044602;28;20025;-77
2023/04/29 02:27:05;;;;;;;5.50;4.95;;;;;;;;;;5040277;28;20447;-77
2023/04/29 02:29:32;;;;;;;6.90;5.28;;;;;;;;;;5026002;28;20040;-78
2023/04/29 02:31:58;;;;;;;5.20;4.57;;;;;;;;;;5026603;28;20058;-78
2023/04/29 02:34:24;;;;;;;7.32;4.85;;;;;;;;;;5002643;28;20087;-78
2023/04/29 02:36:50;;;;;;;6.13;4.35;;;;;;;;;;4988150;28;20336;-78
2023/04/29 02:39:16;;;;;;;6.45;4.53;;;;;;;;;;4986353;28;20030;-77
2023/04/29 02:41:43;;;;;;;10.63;4.43;;;;;;;;;;4992891;28;20038;-77
2023/04/29 02:44:09;;;;;;;6.28;4.68;;;;;;;;;;4989045;28;20042;-78
2023/04/29 02:46:35;;;;;;;5.88;4.47;;;;;;;;;;4987550;28;20030;-78
2023/04/29 02:49:02;;;;;;;6.78;4.85;;;;;;;;;;4986704;28;20027;-78
2023/04/29 02:51:29;;;;;;;5.95;4.65;;;;;;;;;;4989610;28;20061;-78
2023/04/29 02:53:55;;;;;;;5.28;4.28;;;;;;;;;;5019768;28;20062;-77
2023/04/29 02:56:22;;;;;;;5.47;4.63;;;;;;;;;;4986872;28;20041;-77
2023/04/29 02:58:48;;;;;;;8.35;4.72;;;;;;;;;;4989298;28;20030;-77
2023/04/29 03:01:14;;;;;;;6.00;4.55;;;;;;;;;;4990611;28;20036;-77
2023/04/29 03:03:40;;;;;;;7.00;4.75;;;;;;;;;;4990344;28;20054;-78
2023/04/29 03:06:07;;;;;;;6.47;4.15;;;;;;;;;;4988906;28;20026;-78
2023/04/29 03:08:34;;;;;;;6.85;5.55;;;;;;;;;;5020719;28;20027;-78
2023/04/29 03:11:01;;;;;;;6.63;4.72;;;;;;;;;;4988875;28;20026;-78
2023/04/29 03:13:27;;;;;;;6.18;4.75;;;;;;;;;;4989302;28;20065;-77
2023/04/29 03:15:53;;;;;;;8.05;4.68;;;;;;;;;;4982983;28;20494;-78
2023/04/29 03:18:19;;;;;;;7.53;5.28;;;;;;;;;;4987870;28;20365;-78
2023/04/29 03:20:45;;;;;;;6.03;4.50;;;;;;;;;;5020863;28;20027;-78
2023/04/29 03:23:11;;;;;;;7.20;4.88;;;;;;;;;;4982000;28;20049;-78
2023/04/29 03:25:38;;;;;;;6.10;5.50;;;;;;;;;;4988299;28;20022;-77
2023/04/29 03:28:04;;;;;;;6.63;5.03;;;;;;;;;;4976570;28;20034;-77
2023/04/29 03:30:30;;;;;;;6.53;4.38;;;;;;;;;;5017444;28;20030;-78
2023/04/29 03:32:56;;;;;;;6.97;4.93;;;;;;;;;;5043428;28;20026;-78
2023/04/29 03:35:22;;;;;;;6.03;4.53;;;;;;;;;;5051057;28;20040;-77
2023/04/29 03:37:48;;;;;;;5.38;4.65;;;;;;;;;;5041825;28;20037;-77
2023/04/29 03:40:15;;;;;;;7.25;5.50;;;;;;;;;;5017863;28;20063;-78
2023/04/29 03:42:41;;;;;;;6.15;4.70;;;;;;;;;;5043492;28;20025;-78
2023/04/29 03:45:07;;;;;;;6.03;4.53;;;;;;;;;;5026030;28;20569;-78
2023/04/29 03:47:33;;;;;;;6.38;4.85;;;;;;;;;;5042089;28;20113;-77
2023/04/29 03:49:59;;;;;;;7.03;4.45;;;;;;;;;;5028902;28;20092;-77
2023/04/29 03:52:25;;;;;;;6.05;4.97;;;;;;;;;;5034252;28;20022;-78
2023/04/29 03:54:52;;;;;;;6.53;4.80;;;;;;;;;;5046691;28;20037;-78
2023/04/29 03:57:18;;;;;;;5.68;4.53;;;;;;;;;;5046315;28;20370;-78
2023/04/29 03:59:44;;;;;;;5.53;4.65;;;;;;;;;;5045108;28;20036;-78
2023/04/29 04:02:10;;;;;;;7.43;4.60;;;;;;;;;;5028372;28;20036;-78
2023/04/29 04:04:36;;;;;;;6.53;4.60;;;;;;;;;;5048022;28;20057;-77
2023/04/29 04:07:03;;;;;;;6.10;4.70;;;;;;;;;;5055692;28;20540;-77
2023/04/29 04:09:29;;;;;;;7.18;5.22;;;;;;;;;;5022344;28;20048;-78
2023/04/29 04:11:55;;;;;;;7.20;4.70;;;;;;;;;;5038605;28;20025;-78
2023/04/29 04:14:21;;;;;;;11.23;4.78;;;;;;;;;;5043584;28;20030;-77
2023/04/29 04:16:49;;;;;;;5.32;4.25;;;;;;;;;;5031417;28;20104;-78
2023/04/29 04:19:15;;;;;;;5.22;4.57;;;;;;;;;;5046603;28;20595;-78
2023/04/29 04:21:41;;;;;;;8.18;4.88;;;;;;;;;;5030005;28;20026;-78
2023/04/29 04:24:08;;;;;;;6.57;4.95;;;;;;;;;;5047302;28;20595;-78
2023/04/29 04:26:34;;;;;;;8.23;4.43;;;;;;;;;;5048252;28;20025;-77
2023/04/29 04:29:00;;;;;;;8.43;4.82;;;;;;;;;;5028854;28;20112;-78
2023/04/29 04:31:26;;;;;;;5.55;4.55;;;;;;;;;;5024947;28;20046;-78
2023/04/29 04:33:52;;;;;;;6.32;5.10;;;;;;;;;;5034891;28;20051;-78
2023/04/29 04:36:18;;;;;;;7.20;5.03;;;;;;;;;;5050499;28;20033;-78
2023/04/29 04:38:44;;;;;;;5.40;4.43;;;;;;;;;;5033290;28;20021;-77
2023/04/29 04:41:11;;;;;;;7.32;4.82;;;;;;;;;;5047625;28;20394;-78
2023/04/29 04:43:38;;;;;;;7.30;4.80;;;;;;;;;;5057909;28;20389;-78
2023/04/29 04:46:15;;;;;;;5.60;4.55;;;;;;;;;;5048943;28;20053;-78
2023/04/29 04:48:42;;;;;;;7.95;5.35;;;;;;;;;;5050105;28;20025;-78
2023/04/29 04:51:12;;;;;;;5.40;4.85;;;;;;;;;;5028864;28;20079;-78
2023/04/29 04:53:38;;;;;;;5.95;4.57;;;;;;;;;;5045963;28;20084;-77
2023/04/29 04:56:05;;;;;;;6.78;5.05;;;;;;;;;;5053886;28;20528;-78
2023/04/29 04:58:32;;;;;;;6.45;5.07;;;;;;;;;;5046962;28;20112;-78
2023/04/29 05:00:59;;;;;;;13.38;6.70;;;;;;;;;;5028474;28;20513;-78
2023/04/29 05:03:26;;;;;;;13.23;7.03;;;;;;;;;;5048014;28;20025;-81
2023/04/29 05:05:57;;;;;;;11.85;6.03;;;;;;;;;;5050223;28;20029;-79
2023/04/29 05:08:23;;;;;;;7.13;5.63;;;;;;;;;;5059800;28;20032;-78
2023/04/29 05:10:49;;;;;;;8.18;5.80;;;;;;;;;;5046729;28;20028;-78
2023/04/29 05:13:15;;;;;;;10.70;6.25;;;;;;;;;;5028882;28;20548;-78
2023/04/29 05:15:42;;;;;;;9.73;6.68;;;;;;;;;;5046056;28;20022;-79
2023/04/29 05:18:08;;;;;;;10.65;6.93;;;;;;;;;;5032121;28;20104;-78
2023/04/29 05:20:34;;;;;;;12.60;7.00;;;;;;;;;;5028297;28;20036;-77
2023/04/29 05:23:00;;;;;;;9.50;7.10;;;;;;;;;;5027648;28;20803;-78
2023/04/29 05:25:26;;;;;;;9.38;7.25;;;;;;;;;;5025274;28;20055;-80
2023/04/29 05:27:52;;;;;;;10.73;7.20;;;;;;;;;;5025303;28;20537;-78
2023/04/29 05:30:19;;;;;;;10.90;6.85;;;;;;;;;;5032595;28;20021;-78
2023/04/29 05:32:45;;;;;;;8.45;6.60;;;;;;;;;;5006295;28;20394;-78
2023/04/29 05:35:11;;;;;;;8.85;6.40;;;;;;;;;;5024538;28;20041;-78
2023/04/29 05:37:37;;;;;;;8.65;6.70;;;;;;;;;;5032579;28;20026;-77
2023/04/29 05:40:04;;;;;;;7.55;5.93;;;;;;;;;;5036421;28;20041;-77
2023/04/29 05:42:30;;;;;;;8.07;5.93;;;;;;;;;;5011670;28;20041;-78
2023/04/29 05:44:56;;;;;;;8.05;5.97;;;;;;;;;;5011308;28;20032;-78
2023/04/29 05:47:22;;;;;;;9.50;6.28;;;;;;;;;;5011822;28;20037;-78
2023/04/29 05:49:48;;;;;;;11.43;7.05;;;;;;;;;;5021314;28;20041;-78
2023/04/29 05:52:15;;;;;;;10.13;6.70;;;;;;;;;;5038303;28;20022;-78
2023/04/29 05:54:41;;;;;;;9.52;6.65;;;;;;;;;;5041640;28;20053;-78
2023/04/29 05:57:07;;;;;;;9.32;6.60;;;;;;;;;;5022285;28;20489;-78
2023/04/29 05:59:33;;;;;;;9.90;6.82;;;;;;;;;;5011060;28;20950;-78
2023/04/29 06:02:00;;;;;;;9.88;6.78;;;;;;;;;;5032677;28;20049;-78
2023/04/29 06:04:26;;;;;;;9.13;6.50;;;;;;;;;;5038512;28;20021;-78
2023/04/29 06:06:53;;;;;;;8.73;6.57;;;;;;;;;;5039495;28;20037;-78
2023/04/29 06:09:20;;;;;;;12.45;7.10;;;;;;;;;;5039446;28;20080;-78
2023/04/29 06:11:46;;;;;;;8.10;6.30;;;;;;;;;;5001521;28;20813;-79
2023/04/29 06:14:12;;;;;;;14.93;6.80;;;;;;;;;;5003068;28;20356;-78
2023/04/29 06:16:39;;;;;;;9.02;6.32;;;;;;;;;;5010587;28;20041;-79
2023/04/29 06:19:05;;;;;;;10.02;6.93;;;;;;;;;;5001743;28;20040;-78
2023/04/29 06:21:31;;;;;;;10.02;6.40;;;;;;;;;;5015794;28;20041;-81
2023/04/29 06:23:58;;;;;;;8.43;6.72;;;;;;;;;;5015236;28;20356;-81
2023/04/29 06:26:24;;;;;;;9.10;6.75;;;;;;;;;;5006541;28;20026;-78
2023/04/29 06:28:50;;;;;;;9.85;7.13;;;;;;;;;;5004637;28;20736;-78
2023/04/29 06:31:16;;;;;;;10.93;7.63;;;;;;;;;;5034592;28;20153;-82
2023/04/29 06:33:43;;;;;;;11.15;7.82;;;;;;;;;;5029641;28;20084;-82
2023/04/29 06:36:09;;;;;;;10.45;7.13;;;;;;;;;;5000554;28;20031;-79
2023/04/29 06:38:35;;;;;;;10.93;7.25;;;;;;;;;;5018712;28;20148;-81
2023/04/29 06:41:02;;;;;;;10.57;6.75;;;;;;;;;;5005461;28;20033;-82
2023/04/29 06:43:28;;;;;;;8.95;7.90;;;;;;;;;;4987622;28;20026;-78
2023/04/29 06:45:54;;;;;;;9.27;6.95;;;;;;;;;;5022510;28;20455;-80
2023/04/29 06:48:20;;;;;;;11.60;7.20;;;;;;;;;;5019922;28;20034;-78
2023/04/29 06:50:56;;;;;;;8.07;6.55;;;;;;;;;;4982552;28;20058;-76
2023/04/29 06:53:23;;;;;;;8.10;6.68;;;;;;;;;;4991639;28;20054;-78
2023/04/29 06:55:49;;;;;;;9.68;6.68;;;;;;;;;;4988856;28;20043;-78
2023/04/29 06:58:15;;;;;;;10.15;7.15;;;;;;;;;;4989889;28;20029;-77
2023/04/29 07:00:45;;;;;;;12.07;7.15;;;;;;;;;;4988932;28;20030;-81
2023/04/29 07:03:12;;;;;;;8.93;6.75;;;;;;;;;;5019401;28;21588;-79
2023/04/29 07:05:40;;;;;;;10.60;6.75;;;;;;;;;;4988625;28;20073;-81
2023/04/29 07:08:06;;;;;;;10.10;7.57;;;;;;;;;;4992621;28;20022;-80
2023/04/29 07:10:34;;;;;;;8.25;6.55;;;;;;;;;;4987907;28;20483;-85
2023/04/29 07:13:00;;;;;;;9.23;6.70;;;;;;;;;;4991070;28;20057;-76
2023/04/29 07:15:27;;;;;;;8.38;6.32;;;;;;;;;;4983593;28;20034;-73
2023/04/29 07:17:53;;;;;;;7.72;6.10;;;;;;;;;;4983258;28;20030;-74
2023/04/29 07:20:19;;;;;;;8.85;6.00;;;;;;;;;;4975372;28;20492;-75
2023/04/29 07:22:45;;;;;;;8.73;5.85;;;;;;;;;;5014599;28;20026;-76
2023/04/29 07:25:11;;;;;;;10.27;5.85;;;;;;;;;;4979896;28;20031;-74
2023/04/29 07:27:38;;;;;;;9.00;5.90;;;;;;;;;;4987896;28;20027;-75
2023/04/29 07:30:04;;;;;;;6.55;5.32;;;;;;;;;;4991000;28;20038;-75
2023/04/29 07:32:31;;;;;;;7.95;5.80;;;;;;;;;;5010975;28;20065;-76
2023/04/29 07:34:57;;;;;;;8.18;5.72;;;;;;;;;;5039092;28;20060;-74
2023/04/29 07:37:24;;;;;;;7.38;5.50;;;;;;;;;;5036187;28;20399;-75
2023/04/29 07:39:50;;;;;;;7.25;5.38;;;;;;;;;;5036829;28;20113;-74
2023/04/29 07:42:16;;;;;;;6.68;5.68;;;;;;;;;;5008155;28;20103;-77
2023/04/29 07:44:44;;;;;;;8.35;4.93;;;;;;;;;;5038475;28;20081;-76
2023/04/29 07:47:10;;;;;;;6.70;5.15;;;;;;;;;;5005665;28;20022;-75
2023/04/29 07:49:36;;;;;;;6.15;4.72;;;;;;;;;;5006590;28;20406;-73
2023/04/29 07:52:04;;;;;;;6.30;4.80;;;;;;;;;;5005403;28;20029;-75
2023/04/29 07:54:31;;;;;;;6.22;4.55;;;;;;;;;;5005639;28;20133;-75
2023/04/29 07:57:02;;;;;;;6.93;4.20;;;;;;;;;;5037983;28;20026;-75
2023/04/29 07:59:28;;;;;;;10.93;4.90;;;;;;;;;;5005746;28;20057;-74
2023/04/29 08:01:54;;;;;;;6.13;4.55;;;;;;;;;;5005777;28;20061;-75
2023/04/29 08:04:20;;;;;;;7.05;3.85;;;;;;;;;;5004549;28;20030;-75
2023/04/29 08:06:47;;;;;;;4.78;3.33;;;;;;;;;;5034061;28;20478;-75
2023/04/29 08:09:13;;;;;;;4.15;3.70;;;;;;;;;;5008091;28;20794;-73
2023/04/29 08:11:40;;;;;;;5.47;3.72;;;;;;;;;;5006177;28;20049;-76
2023/04/29 08:14:06;;;;;;;6.55;3.92;;;;;;;;;;5039182;28;20394;-74
2023/04/29 08:16:32;;;;;;;5.50;4.20;;;;;;;;;;5005691;28;20032;-75
2023/04/29 08:18:58;;;;;;;5.78;4.07;;;;;;;;;;5037646;28;20026;-74
2023/04/29 08:21:26;;;;;;;5.15;3.67;;;;;;;;;;5005431;28;20091;-75
2023/04/29 08:23:52;;;;;;;4.88;3.72;;;;;;;;;;5002983;28;20480;-76
2023/04/29 08:26:18;;;;;;;7.05;4.20;;;;;;;;;;5004755;28;20054;-74
2023/04/29 08:28:45;;;;;;;5.95;3.95;;;;;;;;;;5005035;28;20028;-74
2023/04/29 08:31:21;;;;;;;5.18;3.78;;;;;;;;;;5007011;28;20104;-74
2023/04/29 08:33:47;;;;;;;4.50;3.33;;;;;;;;;;5036500;28;20554;-73
2023/04/29 08:36:13;;;;;;;5.55;3.55;;;;;;;;;;5027478;28;20025;-74
2023/04/29 08:38:40;;;;;;;4.35;3.30;;;;;;;;;;5020651;28;20474;-75
2023/04/29 08:41:10;;;;;;;4.38;3.28;;;;;;;;;;5038128;28;20490;-74
2023/04/29 08:43:36;;;;;;;4.78;3.95;;;;;;;;;;5028873;28;20040;-74
2023/04/29 08:46:03;;;;;;;4.22;3.33;;;;;;;;;;5029754;28;20030;-74
2023/04/29 08:48:30;;;;;;;5.57;3.58;;;;;;;;;;5041779;28;20050;-75
2023/04/29 08:51:00;;;;;;;5.43;3.55;;;;;;;;;;5028959;28;20025;-75
2023/04/29 08:53:28;;;;;;;6.50;3.72;;;;;;;;;;5026246;28;20076;-78
2023/04/29 08:55:55;;;;;;;3.78;3.15;;;;;;;;;;5026235;28;20652;-75
2023/04/29 08:58:21;;;;;;;4.30;2.92;;;;;;;;;;5049205;28;20038;-76
2023/04/29 09:00:48;;;;;;;5.50;3.40;;;;;;;;;;5050122;28;20032;-73
2023/04/29 09:03:17;;;;;;;2.85;2.47;;;;;;;;;;4999212;28;20025;-75
2023/04/29 09:05:45;;;;;;;4.68;2.50;;;;;;;;;;5025782;28;20026;-74
2023/04/29 09:08:11;;;;;;;2.55;2.17;;;;;;;;;;5032805;28;20022;-74
2023/04/29 09:10:47;;;;;;;3.25;2.95;;;;;;;;;;5049581;28;20047;-73
2023/04/29 09:13:26;;;;;;;4.82;2.85;;;;;;;;;;5026288;28;20030;-77
2023/04/29 09:15:52;;;;;;;4.35;2.83;;;;;;;;;;5043134;28;20021;-74
2023/04/29 09:18:37;;;;;;;3.90;2.80;;;;;;;;;;5026462;28;20025;-73
2023/04/29 09:21:14;;;;;;;3.97;2.63;;;;;;;;;;5041625;28;20029;-74
2023/04/29 09:23:40;;;;;;;6.18;2.90;;;;;;;;;;5026705;28;20053;-74
2023/04/29 09:26:06;;;;;;;4.20;2.97;;;;;;;;;;5024931;28;20033;-74
2023/04/29 09:28:32;;;;;;;4.53;3.10;;;;;;;;;;5030242;28;20502;-74
2023/04/29 09:30:59;;;;;;;4.40;3.50;;;;;;;;;;5050971;28;20041;-74
2023/04/29 09:33:27;;;;;;;5.22;2.92;;;;;;;;;;5045169;28;20029;-75
2023/04/29 09:35:53;;;;;;;4.95;2.63;;;;;;;;;;5026687;28;20029;-74
2023/04/29 09:38:20;;;;;;;6.15;2.92;;;;;;;;;;5031291;28;20549;-72
2023/04/29 09:40:47;;;;;;;3.50;3.20;;;;;;;;;;5047154;28;20083;-76
2023/04/29 09:43:14;;;;;;;4.20;2.92;;;;;;;;;;5058460;28;20383;-72
2023/04/29 09:45:45;;;;;;;3.13;2.63;;;;;;;;;;5041080;28;20516;-71
2023/04/29 09:48:11;;;;;;;2.92;2.50;;;;;;;;;;5029939;28;20017;-73
2023/04/29 09:50:38;;;;;;;3.08;2.78;;;;;;;;;;5023351;28;20024;-73
2023/04/29 09:53:07;;;;;;;4.47;3.10;;;;;;;;;;5031427;28;20033;-74
2023/04/29 09:55:34;;;;;;;5.82;3.30;;;;;;;;;;5046204;28;20171;-73
2023/04/29 09:58:01;;;;;;;5.03;3.30;;;;;;;;;;5040028;28;20101;-73
2023/04/29 10:00:32;;;;;;;5.07;3.13;;;;;;;;;;5046761;28;20099;-72
2023/04/29 10:02:59;;;;;;;3.60;3.03;;;;;;;;;;5040411;28;20724;-74
2023/04/29 10:05:29;;;;;;;4.28;2.75;;;;;;;;;;5024245;28;20030;-74
2023/04/29 10:07:57;;;;;;;4.53;2.95;;;;;;;;;;5040218;28;20108;-77
2023/04/29 10:10:28;;;;;;;5.18;3.60;;;;;;;;;;5029169;28;20046;-75
2023/04/29 10:12:54;;;;;;;4.18;3.38;;;;;;;;;;5046174;28;20100;-74
2023/04/29 10:15:33;;;;;;;4.65;3.35;;;;;;;;;;5032143;28;20034;-75
2023/04/29 10:18:06;;;;;;;4.05;3.65;;;;;;;;;;5028074;28;20041;-73
2023/04/29 10:20:33;;;;;;;5.63;3.92;;;;;;;;;;5055403;28;20032;-73
2023/04/29 10:22:59;;;;;;;5.28;3.13;;;;;;;;;;5034686;28;20036;-74
2023/04/29 10:25:27;;;;;;;3.53;2.88;;;;;;;;;;5025785;28;20030;-75
2023/04/29 10:27:54;;;;;;;3.30;2.70;;;;;;;;;;5048105;28;20031;-72
2023/04/29 10:30:21;;;;;;;3.47;2.60;;;;;;;;;;5055498;28;20025;-74
2023/04/29 10:32:49;;;;;;;3.38;2.42;;;;;;;;;;5031079;28;20060;-75
2023/04/29 10:35:18;;;;;;;4.15;3.40;;;;;;;;;;5028527;28;20478;-74
2023/04/29 10:37:45;;;;;;;4.75;2.70;;;;;;;;;;5036649;28;20055;-74
2023/04/29 10:40:19;;;;;;;4.28;3.03;;;;;;;;;;5029492;28;20477;-74
2023/04/29 10:42:47;;;;;;;4.85;2.50;;;;;;;;;;5053763;28;20029;-74
2023/04/29 10:45:25;;;;;;;3.78;2.67;;;;;;;;;;5053012;28;20043;-76
2023/04/29 10:48:07;;;;;;;2.90;2.60;;;;;;;;;;5052156;28;20021;-74
2023/04/29 10:50:49;;;;;;;2.88;2.45;;;;;;;;;;5037745;28;20076;-74
2023/04/29 10:53:16;;;;;;;5.30;2.70;;;;;;;;;;5057277;28;20037;-76
2023/04/29 10:55:42;;;;;;;4.28;2.90;;;;;;;;;;5052724;28;20029;-76
2023/04/29 10:58:29;;;;;;;5.25;2.75;;;;;;;;;;5067172;28;20124;-73
2023/04/29 11:00:55;;;;;;;3.63;2.70;;;;;;;;;;5027876;28;20086;-74
2023/04/29 11:03:40;;;;;;;4.72;2.80;;;;;;;;;;5035745;28;20025;-74
2023/04/29 11:06:09;;;;;;;3.55;3.25;;;;;;;;;;5035544;28;20112;-74
2023/04/29 11:08:44;;;;;;;4.25;3.05;;;;;;;;;;5029604;28;20034;-73
2023/04/29 11:11:10;;;;;;;;;;;;;;;;;;5043339;28;20065;-73
2023/04/29 11:13:40;;;;;;;4.22;2.30;;;;;;;;;;5034695;28;19913;-73
2023/04/29 11:16:07;;;;;;;3.33;2.50;;;;;;;;;;5052485;28;20508;-74
2023/04/29 11:18:34;;;;;;;3.47;2.60;;;;;;;;;;5033569;28;20029;-75
2023/04/29 11:21:06;;;;;;;5.03;2.60;;;;;;;;;;5037933;28;20095;-75
2023/04/29 11:23:35;;;;;;;3.65;2.22;;;;;;;;;;5034290;28;20021;-74
2023/04/29 11:26:01;;;;;;;3.13;2.25;;;;;;;;;;5032712;28;20385;-73
2023/04/29 11:28:28;;;;;;;2.80;2.50;;;;;;;;;;5047926;28;20041;-73
2023/04/29 11:30:56;;;;;;;5.18;2.70;;;;;;;;;;5032689;28;20038;-73
2023/04/29 11:33:22;;;;;;;3.95;2.60;;;;;;;;;;5033088;28;20053;-74
2023/04/29 11:35:49;;;;;;;5.10;2.53;;;;;;;;;;5049157;28;20037;-74
2023/04/29 11:38:15;;;;;;;3.72;2.63;;;;;;;;;;5037624;28;20033;-73
2023/04/29 11:40:50;;;;;;;2.92;2.63;;;;;;;;;;5035559;28;20175;-75
2023/04/29 11:43:17;;;;;;;3.10;2.60;;;;;;;;;;5033329;28;20034;-75
2023/04/29 11:45:46;;;;;;;4.15;2.95;;;;;;;;;;5030203;28;20119;-74
2023/04/29 11:48:23;;;;;;;2.75;2.45;;;;;;;;;;5043691;28;20489;-74
2023/04/29 11:50:56;;;;;;;3.92;2.80;;;;;;;;;;5035224;28;20020;-73
2023/04/29 11:53:24;;;;;;;2.97;2.60;;;;;;;;;;5047298;28;20038;-75
2023/04/29 11:55:52;;;;;;;4.47;3.13;;;;;;;;;;5033048;28;20048;-75
2023/04/29 11:58:20;;;;;;;5.95;3.90;;;;;;;;;;5032676;28;20028;-74
2023/04/29 12:00:50;;;;;;;4.97;3.50;;;;;;;;;;5045810;28;20112;-75
2023/04/29 12:03:18;;;;;;;9.65;3.90;;;;;;;;;;5043933;28;20053;-75
2023/04/29 12:05:54;;;;;;;6.88;3.53;;;;;;;;;;5044332;28;20060;-74
2023/04/29 12:08:23;;;;;;;14.10;3.88;;;;;;;;;;5033545;28;20094;-75
2023/04/29 12:10:50;;;;;;;4.70;3.10;;;;;;;;;;5054469;28;20026;-73
2023/04/29 12:13:17;;;;;;;3.85;3.15;;;;;;;;;;5050909;28;20052;-75
2023/04/29 12:15:45;;;;;;;4.35;3.20;;;;;;;;;;5055114;28;20036;-75
2023/04/29 12:18:11;;;;;;;5.05;3.35;;;;;;;;;;5037249;28;20029;-75
2023/04/29 12:20:38;;;;;;;6.25;3.83;;;;;;;;;;5055000;28;20417;-74
2023/04/29 12:23:27;;;;;;;3.63;3.13;;;;;;;;;;5037827;28;20059;-80
2023/04/29 12:25:53;;;;;;;5.40;3.60;;;;;;;;;;5025805;28;20072;-76
2023/04/29 12:28:20;;;;;;;5.38;3.60;;;;;;;;;;5030505;28;20029;-75
2023/04/29 12:30:47;;;;;;;3.75;3.10;;;;;;;;;;5035624;28;20037;-76
2023/04/29 12:33:20;;;;;;;6.32;3.15;;;;;;;;;;5050489;28;20091;-75
2023/04/29 12:35:48;;;;;;;6.13;3.28;;;;;;;;;;5032124;28;20041;-76
2023/04/29 12:38:17;;;;;;;4.43;3.10;;;;;;;;;;5052749;28;20406;-76
2023/04/29 12:40:44;;;;;;;5.78;3.20;;;;;;;;;;5046576;28;20033;-75
2023/04/29 12:43:10;;;;;;;4.28;2.97;;;;;;;;;;5030654;28;20459;-75
2023/04/29 12:45:38;;;;;;;3.63;2.70;;;;;;;;;;5051538;28;20426;-76
2023/04/29 12:48:04;;;;;;;3.40;3.10;;;;;;;;;;5048614;28;20034;-77
2023/04/29 12:50:36;;;;;;;3.20;2.85;;;;;;;;;;5034437;28;20021;-75
2023/04/29 12:53:03;;;;;;;3.85;3.08;;;;;;;;;;5034166;28;20017;-76
2023/04/29 12:55:31;;;;;;;6.20;2.92;;;;;;;;;;5053953;28;20050;-74
2023/04/29 12:57:57;;;;;;;4.13;2.90;;;;;;;;;;5038655;28;20038;-76
2023/04/29 13:00:23;;;;;;;4.25;3.17;;;;;;;;;;5025625;28;20029;-79
2023/04/29 13:02:50;;;;;;;4.30;2.80;;;;;;;;;;5027418;28;20022;-76
2023/04/29 13:05:16;;;;;;;3.78;3.03;;;;;;;;;;5054181;28;20041;-77
2023/04/29 13:07:42;;;;;;;3.55;3.05;;;;;;;;;;5046970;28;20097;-78
2023/04/29 13:10:10;;;;;;;4.32;2.97;;;;;;;;;;5032393;28;20096;-75
2023/04/29 13:12:37;;;;;;;3.13;2.65;;;;;;;;;;5042919;28;20022;-76
2023/04/29 13:15:04;;;;;;;3.60;3.28;;;;;;;;;;5051345;28;20055;-75
2023/04/29 13:17:31;;;;;;;4.75;3.47;;;;;;;;;;5052413;28;20032;-78
2023/04/29 13:19:57;;;;;;;3.83;3.17;;;;;;;;;;5037509;28;20026;-75
2023/04/29 13:22:23;;;;;;;3.00;2.70;;;;;;;;;;5049697;28;20036;-77
2023/04/29 13:24:49;;;;;;;4.43;3.03;;;;;;;;;;5033861;28;20037;-76
2023/04/29 13:27:15;;;;;;;4.40;2.90;;;;;;;;;;5056089;28;20029;-75
2023/04/29 13:29:41;;;;;;;3.20;2.90;;;;;;;;;;5041028;28;20541;-78
2023/04/29 13:32:07;;;;;;;2.85;2.50;;;;;;;;;;5037955;28;20057;-78
2023/04/29 13:34:34;;;;;;;4.30;3.05;;;;;;;;;;5016652;28;20034;-78
2023/04/29 13:37:00;;;;;;;4.68;2.75;;;;;;;;;;5029785;28;20034;-81
2023/04/29 13:39:26;;;;;;;3.88;2.50;;;;;;;;;;5031374;28;20037;-80
2023/04/29 13:41:52;;;;;;;4.90;3.05;;;;;;;;;;4995950;28;20068;-76
2023/04/29 13:44:18;;;;;;;3.65;2.47;;;;;;;;;;4993191;28;20022;-75
2023/04/29 13:46:45;;;;;;;3.05;2.55;;;;;;;;;;4989031;28;20046;-78
2023/04/29 13:49:11;;;;;;;2.90;2.35;;;;;;;;;;4995372;28;20027;-76
2023/04/29 13:51:37;;;;;;;4.95;2.83;;;;;;;;;;5027586;28;20062;-76
2023/04/29 13:54:03;;;;;;;3.10;2.67;;;;;;;;;;4996696;28;20037;-77
2023/04/29 13:56:30;;;;;;;3.17;2.60;;;;;;;;;;5027522;28;20108;-75
2023/04/29 13:58:56;;;;;;;4.32;2.33;;;;;;;;;;5028858;28;20030;-76
2023/04/29 14:01:22;;;;;;;3.50;2.55;;;;;;;;;;4993527;28;20554;-77
2023/04/29 14:03:49;;;;;;;2.97;2.30;;;;;;;;;;4994768;28;20030;-76
2023/04/29 14:06:15;;;;;;;3.72;2.85;;;;;;;;;;5008889;28;20027;-76
2023/04/29 14:08:41;;;;;;;4.05;2.47;;;;;;;;;;4993559;28;20022;-77
2023/04/29 14:11:07;;;;;;;4.88;3.13;;;;;;;;;;5010669;28;20042;-76
2023/04/29 14:13:33;;;;;;;3.90;2.65;;;;;;;;;;5017275;28;20076;-76
2023/04/29 14:16:02;;;;;;;3.13;2.50;;;;;;;;;;4987753;28;20040;-75
2023/04/29 14:18:29;;;;;;;5.30;2.60;;;;;;;;;;5029584;28;20125;-77
2023/04/29 14:20:56;;;;;;;3.90;2.78;;;;;;;;;;5025246;28;20030;-76
2023/04/29 14:23:22;;;;;;;5.25;2.88;;;;;;;;;;4995823;28;20436;-76
2023/04/29 14:25:48;;;;;;;3.85;2.70;;;;;;;;;;4993085;28;20037;-78
2023/04/29 14:28:14;;;;;;;4.05;2.92;;;;;;;;;;4997426;28;20034;-76
2023/04/29 14:30:42;;;;;;;4.40;2.50;;;;;;;;;;5000852;28;20050;-76
2023/04/29 14:33:11;;;;;;;2.78;2.00;;;;;;;;;;5042680;28;20044;-80
2023/04/29 14:35:37;;;;;;;3.42;2.00;;;;;;;;;;5049245;28;20074;-75
2023/04/29 14:38:05;;;;;;;6.72;2.13;;;;;;;;;;5041237;28;20033;-79
2023/04/29 14:40:31;;;;;;;3.40;2.40;;;;;;;;;;5048489;28;20033;-75
2023/04/29 14:42:57;;;;;;;3.30;2.58;;;;;;;;;;5035573;28;20034;-77
2023/04/29 14:45:23;;;;;;;3.17;2.35;;;;;;;;;;5032469;28;20022;-77